createdAt,value
2023-04-30T00:02:24.046Z,99196.63
2023-04-30T00:04:51.067Z,99217.88
2023-04-30T00:07:17.810Z,99213.72
2023-04-30T00:09:44.602Z,99214.56
2023-04-30T00:12:11.437Z,99219.63
2023-04-30T00:14:38.165Z,99230.31
2023-04-30T00:17:04.938Z,99212.16
2023-04-30T00:19:31.686Z,99234.41
2023-04-30T00:21:58.470Z,99226.41
2023-04-30T00:24:25.267Z,99213.16
2023-04-30T00:26:51.991Z,99234.59
2023-04-30T00:29:18.951Z,99240.41
2023-04-30T00:31:45.891Z,99244.41
2023-04-30T00:34:12.700Z,99245.50
2023-04-30T00:36:40.689Z,99241.84
2023-04-30T00:39:07.512Z,99265.53
2023-04-30T00:41:36.085Z,99253.38
2023-04-30T00:44:03.160Z,99245.63
2023-04-30T00:46:31.025Z,99233.72
2023-04-30T00:48:58.232Z,99240.03
2023-04-30T00:51:25.183Z,99246.56
2023-04-30T00:53:52.038Z,99248.84
2023-04-30T00:56:18.988Z,99259.69
2023-04-30T00:58:46.028Z,99246.66
2023-04-30T01:01:12.928Z,99250.47
2023-04-30T01:03:39.983Z,99232.13
2023-04-30T01:06:06.859Z,99260.41
2023-04-30T01:08:34.213Z,99270.84
2023-04-30T01:11:17.603Z,99285.03
2023-04-30T01:14:03.023Z,99289.03
2023-04-30T01:16:36.242Z,99286.19
2023-04-30T01:19:12.024Z,99293.72
2023-04-30T01:21:41.871Z,99282.34
2023-04-30T01:24:15.242Z,99280.13
2023-04-30T01:27:07.165Z,99292.69
2023-04-30T01:29:35.213Z,99287.16
2023-04-30T01:32:02.876Z,99286.22
2023-04-30T01:34:29.590Z,99284.78
2023-04-30T01:37:17.853Z,99295.16
2023-04-30T01:39:50.675Z,99293.13
2023-04-30T01:42:22.717Z,99294.56
2023-04-30T01:45:07.463Z,99289.06
2023-04-30T01:47:38.396Z,99304.34
2023-04-30T01:50:14.184Z,99311.69
2023-04-30T01:52:47.103Z,99316.06
2023-04-30T01:55:21.534Z,99306.75
2023-04-30T01:57:58.734Z,99299.22
2023-04-30T02:00:30.816Z,99320.31
2023-04-30T02:02:58.528Z,99299.63
2023-04-30T02:05:25.710Z,99312.69
2023-04-30T02:07:52.879Z,99297.50
2023-04-30T02:10:22.320Z,99300.19
2023-04-30T02:12:49.190Z,99294.53
2023-04-30T02:15:16.363Z,99317.38
2023-04-30T02:17:43.223Z,99326.09
2023-04-30T02:20:10.596Z,99322.66
2023-04-30T02:22:37.787Z,99341.31
2023-04-30T02:25:04.868Z,99335.38
2023-04-30T02:27:33.175Z,99357.31
2023-04-30T02:30:00.581Z,99362.94
2023-04-30T02:32:27.453Z,99358.84
2023-04-30T02:34:54.232Z,99344.50
2023-04-30T02:37:21.225Z,99359.72
2023-04-30T02:39:47.955Z,99352.81
2023-04-30T02:42:14.699Z,99360.16
2023-04-30T02:44:41.967Z,99346.34
2023-04-30T02:47:08.662Z,99358.75
2023-04-30T02:49:35.681Z,99358.34
2023-04-30T02:52:02.540Z,99374.84
2023-04-30T02:54:29.270Z,99366.66
2023-04-30T02:56:56.793Z,99363.72
2023-04-30T02:59:23.494Z,99366.69
2023-04-30T03:01:50.345Z,99370.06
2023-04-30T03:04:17.117Z,99387.03
2023-04-30T03:06:43.955Z,99381.34
2023-04-30T03:09:10.782Z,99375.56
2023-04-30T03:11:37.911Z,99389.97
2023-04-30T03:14:07.878Z,99373.72
2023-04-30T03:16:34.674Z,99382.91
2023-04-30T03:19:01.384Z,99385.44
2023-04-30T03:21:28.257Z,99398.00
2023-04-30T03:23:54.988Z,99393.47
2023-04-30T03:26:22.291Z,99396.59
2023-04-30T03:28:49.535Z,99391.22
2023-04-30T03:31:16.328Z,99397.16
2023-04-30T03:33:43.151Z,99380.47
2023-04-30T03:36:09.969Z,99400.28
2023-04-30T03:38:36.704Z,99392.53
2023-04-30T03:41:04.018Z,99402.00
2023-04-30T03:43:30.884Z,99401.25
2023-04-30T03:45:58.000Z,99393.19
2023-04-30T03:48:24.724Z,99388.69
2023-04-30T03:50:51.633Z,99398.28
2023-04-30T03:53:18.464Z,99410.97
2023-04-30T03:55:45.575Z,99412.97
2023-04-30T03:58:12.313Z,99409.44
2023-04-30T04:00:41.808Z,99398.00
2023-04-30T04:03:08.671Z,99410.00
2023-04-30T04:05:35.451Z,99405.63
2023-04-30T04:08:02.188Z,99416.75
2023-04-30T04:10:29.251Z,99424.56
2023-04-30T04:12:55.933Z,99417.34
2023-04-30T04:15:22.641Z,99430.75
2023-04-30T04:17:49.411Z,99437.81
2023-04-30T04:20:16.147Z,99429.47
2023-04-30T04:22:42.828Z,99424.22
2023-04-30T04:25:10.649Z,99425.50
2023-04-30T04:27:37.437Z,99437.66
2023-04-30T04:30:04.491Z,99439.91
2023-04-30T04:32:32.843Z,99436.66
2023-04-30T04:34:59.665Z,99457.44
2023-04-30T04:37:26.417Z,99466.78
2023-04-30T04:39:53.392Z,99452.69
2023-04-30T04:42:20.689Z,99459.59
2023-04-30T04:44:47.385Z,99449.56
2023-04-30T04:47:14.150Z,99450.41
2023-04-30T04:49:40.967Z,99450.16
2023-04-30T04:52:07.770Z,99457.59
2023-04-30T04:54:34.869Z,99458.06
2023-04-30T04:57:03.174Z,99468.78
2023-04-30T04:59:30.119Z,99461.00
2023-04-30T05:01:56.932Z,99470.50
2023-04-30T05:04:23.734Z,99477.56
2023-04-30T05:06:50.483Z,99477.28
2023-04-30T05:09:17.709Z,99475.16
2023-04-30T05:11:46.381Z,99462.19
2023-04-30T05:14:13.105Z,99478.69
2023-04-30T05:16:40.378Z,99468.38
2023-04-30T05:19:09.879Z,99464.41
2023-04-30T05:21:36.642Z,99467.81
2023-04-30T05:24:03.941Z,99466.97
2023-04-30T05:26:30.956Z,99448.41
2023-04-30T05:28:57.848Z,99450.25
2023-04-30T05:31:24.701Z,99462.91
2023-04-30T05:33:51.462Z,99454.91
2023-04-30T05:36:18.227Z,99453.22
2023-04-30T05:38:45.296Z,99447.13
2023-04-30T05:41:12.944Z,99456.97
2023-04-30T05:43:39.756Z,99460.00
2023-04-30T05:46:06.806Z,99454.81
2023-04-30T05:48:33.685Z,99452.28
2023-04-30T05:51:00.465Z,99455.66
2023-04-30T05:53:27.197Z,99465.75
2023-04-30T05:55:53.925Z,99445.00
2023-04-30T05:58:20.713Z,99455.38
2023-04-30T06:00:52.424Z,99467.97
2023-04-30T06:03:19.785Z,99455.56
2023-04-30T06:05:47.975Z,99463.84
2023-04-30T06:08:14.857Z,99464.69
2023-04-30T06:10:42.028Z,99425.25
2023-04-30T06:13:08.776Z,99454.22
2023-04-30T06:15:35.612Z,99444.91
2023-04-30T06:18:02.381Z,99442.69
2023-04-30T06:20:29.252Z,99440.75
2023-04-30T06:22:56.023Z,99453.78
2023-04-30T06:25:22.806Z,99438.84
2023-04-30T06:27:51.751Z,99442.25
2023-04-30T06:30:18.553Z,99439.03
2023-04-30T06:32:45.325Z,99443.09
2023-04-30T06:35:12.082Z,99442.84
2023-04-30T06:37:38.890Z,99443.16
2023-04-30T06:40:06.649Z,99456.28
2023-04-30T06:42:36.447Z,99454.78
2023-04-30T06:45:04.083Z,99451.03
2023-04-30T06:47:42.931Z,99466.59
2023-04-30T06:50:10.004Z,99451.91
2023-04-30T06:52:36.747Z,99464.03
2023-04-30T06:55:03.675Z,99452.03
2023-04-30T06:57:31.312Z,99454.22
2023-04-30T06:59:58.027Z,99453.06
2023-04-30T07:02:24.945Z,99433.97
2023-04-30T07:04:51.752Z,99447.53
2023-04-30T07:07:18.638Z,99454.28
2023-04-30T07:09:45.337Z,99458.19
2023-04-30T07:12:13.762Z,99456.00
2023-04-30T07:14:40.801Z,99458.34
2023-04-30T07:17:07.523Z,99448.84
2023-04-30T07:19:34.279Z,99461.31
2023-04-30T07:22:01.248Z,99448.53
2023-04-30T07:24:28.156Z,99465.50
2023-04-30T07:26:55.001Z,99436.19
2023-04-30T07:29:21.850Z,99447.38
2023-04-30T07:31:48.721Z,99433.44
2023-04-30T07:34:15.564Z,99451.97
2023-04-30T07:36:42.316Z,99460.41
2023-04-30T07:39:09.272Z,99457.38
2023-04-30T07:41:36.134Z,99458.50
2023-04-30T07:44:03.303Z,99461.63
2023-04-30T07:46:30.218Z,99449.03
2023-04-30T07:48:57.095Z,99463.22
2023-04-30T07:51:23.891Z,99462.25
2023-04-30T07:53:53.240Z,99459.22
2023-04-30T07:56:20.001Z,99464.19
2023-04-30T07:58:46.800Z,99434.22
2023-04-30T08:01:13.526Z,99446.50
2023-04-30T08:03:40.547Z,99461.59
2023-04-30T08:06:08.098Z,99451.69
2023-04-30T08:08:34.834Z,99454.91
2023-04-30T08:11:01.586Z,99441.03
2023-04-30T08:13:28.275Z,99461.09
2023-04-30T08:15:55.092Z,99424.19
2023-04-30T08:18:22.079Z,99433.00
2023-04-30T08:20:49.027Z,99452.31
2023-04-30T08:23:17.123Z,99467.00
2023-04-30T08:25:43.929Z,99456.13
2023-04-30T08:28:10.742Z,99445.00
2023-04-30T08:30:37.402Z,99447.88
2023-04-30T08:33:04.273Z,99433.81
2023-04-30T08:35:31.232Z,99443.75
2023-04-30T08:37:58.487Z,99444.59
2023-04-30T08:40:43.543Z,99447.09
2023-04-30T08:43:15.677Z,99441.94
2023-04-30T08:45:42.758Z,99441.72
2023-04-30T08:48:15.837Z,99439.91
2023-04-30T08:50:42.747Z,99445.16
2023-04-30T08:53:11.556Z,99449.78
2023-04-30T08:55:40.447Z,99446.38
2023-04-30T08:58:10.544Z,99437.25
2023-04-30T09:00:38.124Z,99451.81
2023-04-30T09:03:05.945Z,99453.66
2023-04-30T09:05:32.718Z,99464.66
2023-04-30T09:08:03.612Z,99450.97
2023-04-30T09:10:34.899Z,99461.72
2023-04-30T09:13:06.907Z,99429.69
2023-04-30T09:15:35.759Z,99467.06
2023-04-30T09:18:10.881Z,99449.22
2023-04-30T09:20:38.333Z,99431.63
2023-04-30T09:23:10.772Z,99456.25
2023-04-30T09:25:42.512Z,99443.50
2023-04-30T09:28:13.948Z,99466.88
2023-04-30T09:30:41.942Z,99441.63
2023-04-30T09:33:11.949Z,99429.59
2023-04-30T09:35:42.132Z,99416.56
2023-04-30T09:38:29.027Z,99453.69
2023-04-30T09:40:57.861Z,99434.09
2023-04-30T09:43:24.741Z,99429.28
2023-04-30T09:45:52.760Z,99462.59
2023-04-30T09:48:22.872Z,99459.00
2023-04-30T09:50:51.060Z,99461.63
2023-04-30T09:53:18.538Z,99428.66
2023-04-30T09:55:50.279Z,99452.13
2023-04-30T09:58:18.462Z,99453.41
2023-04-30T10:00:46.476Z,99457.59
2023-04-30T10:03:15.052Z,99445.00
2023-04-30T10:05:44.453Z,99461.75
2023-04-30T10:08:22.231Z,99435.31
2023-04-30T10:10:52.910Z,99454.44
2023-04-30T10:13:21.904Z,99454.50
2023-04-30T10:15:54.480Z,99462.13
2023-04-30T10:18:33.962Z,99460.31
2023-04-30T10:21:04.048Z,99404.69
2023-04-30T10:23:30.883Z,99437.84
2023-04-30T10:25:58.465Z,99440.44
2023-04-30T10:28:25.374Z,99444.56
2023-04-30T10:30:52.506Z,99422.19
2023-04-30T10:33:49.998Z,99430.81
2023-04-30T10:36:42.610Z,99440.41
2023-04-30T10:39:09.486Z,99431.25
2023-04-30T10:41:36.245Z,99382.53
2023-04-30T10:44:05.439Z,99387.13
2023-04-30T10:46:35.899Z,99413.53
2023-04-30T10:49:02.950Z,99401.00
2023-04-30T10:51:48.592Z,99408.69
2023-04-30T10:54:29.819Z,99389.66
2023-04-30T10:57:19.441Z,99393.78
2023-04-30T11:00:23.709Z,99396.78
2023-04-30T11:02:56.768Z,99393.38
2023-04-30T11:05:35.739Z,99376.22
2023-04-30T11:08:02.611Z,99388.44
2023-04-30T11:10:33.833Z,99389.50
2023-04-30T11:13:07.916Z,99404.97
2023-04-30T11:15:41.729Z,99380.00
2023-04-30T11:18:09.936Z,99373.03
2023-04-30T11:20:43.999Z,99402.59
2023-04-30T11:23:28.184Z,99403.53
2023-04-30T11:26:07.422Z,99394.69
2023-04-30T11:28:37.916Z,99377.13
2023-04-30T11:31:05.199Z,99381.41
2023-04-30T11:33:35.261Z,99386.47
2023-04-30T11:36:02.767Z,99406.34
2023-04-30T11:38:37.627Z,99391.06
2023-04-30T11:41:05.493Z,99372.53
2023-04-30T11:43:34.206Z,99391.75
2023-04-30T11:46:05.130Z,99399.22
2023-04-30T11:48:39.800Z,99385.00
2023-04-30T11:51:22.169Z,99399.06
2023-04-30T11:53:51.686Z,99385.13
2023-04-30T11:56:24.538Z,99399.06
2023-04-30T11:58:55.906Z,99396.13
2023-04-30T12:01:27.324Z,99378.59
2023-04-30T12:03:57.708Z,99381.19
2023-04-30T12:06:27.728Z,99383.81
2023-04-30T12:08:59.404Z,99393.25
2023-04-30T12:11:29.010Z,99395.78
2023-04-30T12:13:57.132Z,99401.41
2023-04-30T12:16:29.076Z,99402.22
2023-04-30T12:18:56.122Z,99396.84
2023-04-30T12:21:23.252Z,99395.63
2023-04-30T12:23:50.500Z,99387.72
2023-04-30T12:26:17.971Z,99352.53
2023-04-30T12:28:47.656Z,99389.84
2023-04-30T12:31:14.415Z,99343.50
2023-04-30T12:33:41.193Z,99342.59
2023-04-30T12:36:11.383Z,99383.47
2023-04-30T12:38:44.180Z,99389.06
2023-04-30T12:41:15.573Z,99377.44
2023-04-30T12:43:42.340Z,99365.63
2023-04-30T12:46:09.214Z,99341.22
2023-04-30T12:48:48.182Z,99374.72
2023-04-30T12:51:20.222Z,99370.41
2023-04-30T12:53:47.258Z,99342.91
2023-04-30T12:56:17.860Z,99377.81
2023-04-30T12:58:51.505Z,99335.56
2023-04-30T13:01:23.189Z,99368.63
2023-04-30T13:03:50.818Z,99354.41
2023-04-30T13:06:18.070Z,99346.03
2023-04-30T13:08:57.254Z,99350.84
2023-04-30T13:11:27.010Z,99349.09
2023-04-30T13:13:56.065Z,99308.16
2023-04-30T13:16:24.857Z,99316.91
2023-04-30T13:18:52.168Z,99338.88
2023-04-30T13:21:18.916Z,99311.75
2023-04-30T13:23:52.878Z,99325.59
2023-04-30T13:26:22.258Z,99321.19
2023-04-30T13:28:50.026Z,99331.09
2023-04-30T13:31:17.262Z,99330.88
2023-04-30T13:33:44.155Z,99334.41
2023-04-30T13:36:11.135Z,99327.69
2023-04-30T13:38:39.438Z,99328.53
2023-04-30T13:41:06.829Z,99318.63
2023-04-30T13:43:33.571Z,99323.88
2023-04-30T13:46:00.328Z,99311.31
2023-04-30T13:48:27.117Z,99302.75
2023-04-30T13:50:54.306Z,99299.19
2023-04-30T13:53:21.007Z,99292.88
2023-04-30T13:55:47.756Z,99299.97
2023-04-30T13:58:15.940Z,99308.41
2023-04-30T14:00:42.701Z,99297.22
2023-04-30T14:03:10.169Z,99294.06
2023-04-30T14:05:37.582Z,99284.16
2023-04-30T14:08:04.609Z,99286.00
2023-04-30T14:10:31.780Z,99289.88
2023-04-30T14:12:58.909Z,99291.75
2023-04-30T14:15:25.717Z,99302.56
2023-04-30T14:17:53.125Z,99290.09
2023-04-30T14:20:19.904Z,99295.19
2023-04-30T14:22:46.615Z,99265.09
2023-04-30T14:25:13.603Z,99290.44
2023-04-30T14:27:40.455Z,99280.09
2023-04-30T14:30:08.111Z,99279.41
2023-04-30T14:32:34.927Z,99287.31
2023-04-30T14:35:02.766Z,99289.94
2023-04-30T14:37:29.704Z,99296.72
2023-04-30T14:39:56.764Z,99288.75
2023-04-30T14:42:23.873Z,99280.63
2023-04-30T14:44:50.615Z,99284.94
2023-04-30T14:47:17.394Z,99291.53
2023-04-30T14:49:44.111Z,99280.41
2023-04-30T14:52:10.814Z,99276.28
2023-04-30T14:54:37.803Z,99279.19
2023-04-30T14:57:05.810Z,99255.13
2023-04-30T14:59:35.030Z,99251.13
2023-04-30T15:02:01.897Z,99275.50
2023-04-30T15:04:28.747Z,99246.97
2023-04-30T15:06:55.542Z,99268.34
2023-04-30T15:09:22.409Z,99284.41
2023-04-30T15:11:49.271Z,99278.41
2023-04-30T15:14:17.412Z,99285.34
2023-04-30T15:16:44.238Z,99278.72
2023-04-30T15:19:10.965Z,99278.06
2023-04-30T15:21:37.852Z,99268.19
2023-04-30T15:24:05.382Z,99262.69
2023-04-30T15:26:33.132Z,99250.88
2023-04-30T15:29:00.048Z,99257.19
2023-04-30T15:31:27.085Z,99255.13
2023-04-30T15:33:53.879Z,99271.63
2023-04-30T15:36:23.507Z,99267.47
2023-04-30T15:38:50.456Z,99262.69
2023-04-30T15:41:17.245Z,99253.88
2023-04-30T15:43:44.024Z,99272.34
2023-04-30T15:46:11.959Z,99259.75
2023-04-30T15:48:38.853Z,99258.63
2023-04-30T15:51:05.619Z,99262.97
2023-04-30T15:53:32.459Z,99249.53
2023-04-30T15:55:59.295Z,99259.91
2023-04-30T15:58:26.221Z,99251.53
2023-04-30T16:00:53.885Z,99258.69
2023-04-30T16:03:20.893Z,99246.34
2023-04-30T16:05:48.274Z,99265.91
2023-04-30T16:08:15.251Z,99265.28
2023-04-30T16:10:43.561Z,99270.97
2023-04-30T16:13:10.292Z,99236.28
2023-04-30T16:15:37.277Z,99245.81
2023-04-30T16:18:04.089Z,99251.28
2023-04-30T16:20:31.626Z,99264.97
2023-04-30T16:22:58.535Z,99256.03
2023-04-30T16:25:25.309Z,99241.44
2023-04-30T16:27:53.116Z,99231.47
2023-04-30T16:30:20.000Z,99231.63
2023-04-30T16:32:46.864Z,99251.91
2023-04-30T16:35:14.765Z,99243.94
2023-04-30T16:37:41.693Z,99207.31
2023-04-30T16:40:08.896Z,99245.59
2023-04-30T16:42:36.061Z,99245.44
2023-04-30T16:45:03.228Z,99255.38
2023-04-30T16:47:30.237Z,99232.88
2023-04-30T16:49:58.721Z,99242.13
2023-04-30T16:52:25.881Z,99203.28
2023-04-30T16:54:52.713Z,99214.41
2023-04-30T16:57:19.796Z,99234.22
2023-04-30T16:59:47.252Z,99236.09
2023-04-30T17:02:14.111Z,99238.94
2023-04-30T17:04:41.387Z,99232.22
2023-04-30T17:07:08.680Z,99236.25
2023-04-30T17:09:36.852Z,99222.09
2023-04-30T17:12:05.487Z,99237.28
2023-04-30T17:14:32.726Z,99239.69
2023-04-30T17:16:59.530Z,99222.78
2023-04-30T17:19:26.278Z,99236.16
2023-04-30T17:21:53.314Z,99228.81
2023-04-30T17:24:20.467Z,99236.72
2023-04-30T17:26:48.024Z,99246.72
2023-04-30T17:29:15.278Z,99245.88
2023-04-30T17:31:42.866Z,99259.03
2023-04-30T17:34:10.377Z,99239.72
2023-04-30T17:36:37.704Z,99252.72
2023-04-30T17:39:06.140Z,99227.22
2023-04-30T17:41:33.595Z,99252.16
2023-04-30T17:44:00.981Z,99263.56
2023-04-30T17:46:28.569Z,99255.69
2023-04-30T17:48:55.870Z,99230.59
2023-04-30T17:51:23.117Z,99241.91
2023-04-30T17:53:50.393Z,99241.72
2023-04-30T17:56:18.524Z,99254.19
2023-04-30T17:58:46.206Z,99246.09
2023-04-30T18:01:13.991Z,99253.00
2023-04-30T18:03:43.305Z,99230.34
2023-04-30T18:06:11.017Z,99269.06
2023-04-30T18:08:38.336Z,99268.00
2023-04-30T18:11:05.484Z,99234.81
2023-04-30T18:13:32.899Z,99269.91
2023-04-30T18:16:00.251Z,99266.91
2023-04-30T18:18:27.337Z,99262.94
2023-04-30T18:20:54.486Z,99276.47
2023-04-30T18:23:22.259Z,99270.41
2023-04-30T18:25:49.505Z,99277.84
2023-04-30T18:28:16.796Z,99268.63
2023-04-30T18:30:43.603Z,99282.88
2023-04-30T18:33:11.040Z,99282.97
2023-04-30T18:35:38.157Z,99285.28
2023-04-30T18:38:08.256Z,99291.22
2023-04-30T18:40:34.989Z,99298.50
2023-04-30T18:43:01.897Z,99284.38
2023-04-30T18:45:29.219Z,99301.97
2023-04-30T18:47:56.032Z,99319.41
2023-04-30T18:50:23.061Z,99310.69
2023-04-30T18:52:50.362Z,99320.59
2023-04-30T18:55:17.731Z,99310.09
2023-04-30T18:57:45.146Z,99328.19
2023-04-30T19:00:14.485Z,99337.75
2023-04-30T19:02:41.505Z,99317.19
2023-04-30T19:05:09.376Z,99343.06
2023-04-30T19:07:36.337Z,99316.28
2023-04-30T19:10:04.717Z,99327.19
2023-04-30T19:12:32.696Z,99334.94
2023-04-30T19:15:02.295Z,99332.56
2023-04-30T19:17:29.671Z,99345.75
2023-04-30T19:20:00.703Z,99321.91
2023-04-30T19:22:27.660Z,99343.50
2023-04-30T19:24:55.147Z,99335.88
2023-04-30T19:27:22.088Z,99336.31
2023-04-30T19:29:49.373Z,99345.91
2023-04-30T19:32:16.579Z,99341.69
2023-04-30T19:34:43.834Z,99342.38
2023-04-30T19:37:12.321Z,99344.09
2023-04-30T19:39:40.594Z,99341.81
2023-04-30T19:42:11.376Z,99343.38
2023-04-30T19:44:38.563Z,99338.84
2023-04-30T19:47:05.417Z,99349.44
2023-04-30T19:49:34.703Z,99349.03
2023-04-30T19:52:02.741Z,99346.16
2023-04-30T19:54:29.876Z,99354.19
2023-04-30T19:56:57.986Z,99359.56
2023-04-30T19:59:26.999Z,99351.59
2023-04-30T20:01:54.691Z,99349.84
2023-04-30T20:04:22.286Z,99353.78
2023-04-30T20:06:56.563Z,99344.34
2023-04-30T20:09:24.031Z,99352.50
2023-04-30T20:11:52.253Z,99351.72
2023-04-30T20:14:20.417Z,99367.31
2023-04-30T20:16:54.468Z,99374.88
2023-04-30T20:19:22.640Z,99341.94
2023-04-30T20:21:50.148Z,99368.50
2023-04-30T20:24:17.035Z,99337.38
2023-04-30T20:26:43.949Z,99348.81
2023-04-30T20:29:11.196Z,99355.59
2023-04-30T20:31:38.351Z,99365.19
2023-04-30T20:34:05.258Z,99353.84
2023-04-30T20:36:32.720Z,99361.16
2023-04-30T20:39:00.147Z,99357.03
2023-04-30T20:41:28.456Z,99353.75
2023-04-30T20:43:55.371Z,99344.06
2023-04-30T20:46:24.490Z,99357.91
2023-04-30T20:48:52.031Z,99343.16
2023-04-30T20:51:20.247Z,99348.75
2023-04-30T20:53:47.428Z,99362.94
2023-04-30T20:56:14.222Z,99354.91
2023-04-30T20:58:43.028Z,99366.34
2023-04-30T21:01:10.068Z,99368.56
2023-04-30T21:03:37.201Z,99375.03
2023-04-30T21:06:05.382Z,99340.25
2023-04-30T21:08:32.154Z,99357.00
2023-04-30T21:10:58.897Z,99372.19
2023-04-30T21:13:25.733Z,99369.38
2023-04-30T21:15:53.516Z,99368.91
2023-04-30T21:18:20.273Z,99366.13
2023-04-30T21:20:47.017Z,99369.88
2023-04-30T21:23:14.745Z,99373.56
2023-04-30T21:25:41.516Z,99371.25
2023-04-30T21:28:08.226Z,99363.78
2023-04-30T21:30:36.453Z,99361.97
2023-04-30T21:33:04.118Z,99352.25
2023-04-30T21:35:33.189Z,99346.72
2023-04-30T21:37:59.981Z,99359.28
2023-04-30T21:40:26.741Z,99363.66
2023-04-30T21:42:53.541Z,99371.56
2023-04-30T21:45:20.356Z,99354.56
2023-04-30T21:47:48.004Z,99365.97
2023-04-30T21:50:15.042Z,99361.88
2023-04-30T21:52:41.936Z,99367.34
2023-04-30T21:55:09.795Z,99332.38
2023-04-30T21:57:36.611Z,99350.69
2023-04-30T22:00:06.929Z,99373.91
2023-04-30T22:02:34.041Z,99378.13
2023-04-30T22:05:01.048Z,99358.97
2023-04-30T22:07:28.287Z,99355.06
2023-04-30T22:09:55.185Z,99358.06
2023-04-30T22:12:25.165Z,99337.00
2023-04-30T22:14:55.750Z,99370.84
2023-04-30T22:17:22.941Z,99375.44
2023-04-30T22:19:49.752Z,99379.06
2023-04-30T22:22:16.785Z,99373.47
2023-04-30T22:24:43.538Z,99360.47
2023-04-30T22:27:10.259Z,99359.75
2023-04-30T22:29:37.128Z,99371.19
2023-04-30T22:32:04.835Z,99367.66
2023-04-30T22:34:38.085Z,99368.59
2023-04-30T22:37:05.272Z,99359.13
2023-04-30T22:39:32.149Z,99369.56
2023-04-30T22:41:59.249Z,99374.50
2023-04-30T22:44:26.633Z,99376.97
2023-04-30T22:46:56.731Z,99367.63
2023-04-30T22:49:31.218Z,99375.50
2023-04-30T22:51:58.858Z,99368.00
2023-04-30T22:54:25.805Z,99363.84
2023-04-30T22:56:52.597Z,99364.53
2023-04-30T22:59:19.552Z,99375.06
2023-04-30T23:03:33.984Z,99371.50
2023-04-30T23:06:00.816Z,99386.72
2023-04-30T23:08:27.653Z,99385.13
2023-04-30T23:10:55.752Z,99365.78
2023-04-30T23:13:23.003Z,99369.81
2023-04-30T23:15:49.894Z,99370.03
2023-04-30T23:18:17.855Z,99392.63
2023-04-30T23:20:44.631Z,99397.94
2023-04-30T23:23:11.462Z,99386.94
2023-04-30T23:25:38.414Z,99374.13
2023-04-30T23:28:05.347Z,99379.69
2023-04-30T23:30:32.111Z,99383.59
2023-04-30T23:32:58.930Z,99387.34
2023-04-30T23:35:25.665Z,99393.28
2023-04-30T23:37:52.395Z,99376.03
2023-04-30T23:40:20.125Z,99383.41
2023-04-30T23:42:46.970Z,99395.53
2023-04-30T23:45:13.771Z,99382.22
2023-04-30T23:47:40.553Z,99410.75
2023-04-30T23:50:08.056Z,99405.19
2023-04-30T23:52:35.947Z,99393.41
2023-04-30T23:55:03.265Z,99389.38
2023-04-30T23:57:29.945Z,99372.63
2023-04-30T23:59:57.275Z,99403.44
